createdAt,value
2022-12-04T00:01:31.206Z,26.56
2022-12-04T00:03:57.655Z,25.38
2022-12-04T00:06:24.103Z,24.58
2022-12-04T00:08:50.583Z,24.51
2022-12-04T00:11:17.023Z,26.00
2022-12-04T00:13:43.632Z,24.94
2022-12-04T00:16:10.101Z,24.60
2022-12-04T00:18:36.587Z,24.87
2022-12-04T00:21:03.019Z,25.12
2022-12-04T00:23:29.450Z,25.67
2022-12-04T00:25:55.958Z,25.31
2022-12-04T00:28:22.379Z,24.55
2022-12-04T00:30:48.819Z,25.39
2022-12-04T00:33:15.379Z,26.76
2022-12-04T00:35:41.805Z,25.19
2022-12-04T00:38:08.247Z,25.44
2022-12-04T00:40:34.661Z,25.55
2022-12-04T00:43:01.074Z,25.94
2022-12-04T00:45:27.583Z,26.30
2022-12-04T00:47:54.065Z,26.38
2022-12-04T00:50:20.490Z,25.59
2022-12-04T00:52:46.922Z,25.60
2022-12-04T00:55:13.349Z,27.81
2022-12-04T00:57:39.769Z,26.03
2022-12-04T01:00:06.194Z,26.09
2022-12-04T01:02:32.645Z,26.38
2022-12-04T01:04:59.091Z,26.38
2022-12-04T01:07:25.543Z,27.93
2022-12-04T01:09:52.084Z,25.98
2022-12-04T01:12:20.960Z,26.01
2022-12-04T01:14:47.618Z,25.89
2022-12-04T01:17:14.044Z,26.56
2022-12-04T01:19:40.474Z,25.74
2022-12-04T01:22:06.904Z,26.72
2022-12-04T01:24:33.304Z,26.18
2022-12-04T01:26:59.727Z,25.48
2022-12-04T01:29:26.152Z,25.63
2022-12-04T01:31:52.649Z,24.98
2022-12-04T01:34:19.133Z,25.45
2022-12-04T01:36:45.587Z,25.62
2022-12-04T01:39:11.999Z,25.55
2022-12-04T01:41:38.430Z,26.01
2022-12-04T01:44:04.848Z,26.10
2022-12-04T01:46:31.299Z,26.12
2022-12-04T01:48:57.729Z,26.28
2022-12-04T01:51:24.142Z,26.05
2022-12-04T01:53:50.615Z,25.74
2022-12-04T01:56:17.034Z,26.25
2022-12-04T01:58:43.449Z,26.50
2022-12-04T02:01:09.905Z,26.74
2022-12-04T02:03:36.387Z,27.35
2022-12-04T02:06:02.826Z,27.40
2022-12-04T02:08:29.236Z,26.59
2022-12-04T02:10:55.664Z,27.21
2022-12-04T02:13:22.112Z,26.28
2022-12-04T02:15:48.528Z,28.05
2022-12-04T02:18:14.935Z,27.03
2022-12-04T02:20:41.360Z,27.20
2022-12-04T02:23:07.784Z,26.50
2022-12-04T02:25:34.238Z,27.80
2022-12-04T02:28:00.711Z,28.13
2022-12-04T02:30:27.172Z,26.55
2022-12-04T02:32:53.642Z,26.13
2022-12-04T02:35:20.086Z,26.52
2022-12-04T02:37:46.488Z,26.76
2022-12-04T02:40:13.030Z,26.26
2022-12-04T02:42:39.472Z,26.23
2022-12-04T02:45:05.879Z,26.47
2022-12-04T02:47:32.308Z,28.18
2022-12-04T02:49:58.859Z,26.89
2022-12-04T02:52:25.328Z,26.49
2022-12-04T02:54:51.765Z,26.21
2022-12-04T02:57:18.185Z,26.76
2022-12-04T02:59:44.615Z,27.02
2022-12-04T03:02:11.080Z,25.74
2022-12-04T03:04:37.569Z,26.52
2022-12-04T03:07:04.017Z,26.69
2022-12-04T03:09:30.424Z,27.45
2022-12-04T03:11:56.837Z,25.87
2022-12-04T03:14:23.343Z,25.14
2022-12-04T03:16:49.790Z,25.54
2022-12-04T03:19:16.201Z,28.47
2022-12-04T03:21:42.602Z,26.04
2022-12-04T03:24:09.042Z,25.97
2022-12-04T03:26:35.504Z,25.45
2022-12-04T03:29:01.943Z,25.56
2022-12-04T03:31:28.375Z,26.54
2022-12-04T03:33:54.798Z,26.01
2022-12-04T03:36:21.239Z,25.89
2022-12-04T03:38:47.665Z,25.70
2022-12-04T03:41:14.067Z,26.99
2022-12-04T03:43:40.494Z,26.02
2022-12-04T03:46:06.958Z,26.80
2022-12-04T03:48:33.408Z,26.07
2022-12-04T03:50:59.845Z,26.50
2022-12-04T03:53:26.272Z,26.95
2022-12-04T03:55:52.719Z,26.38
2022-12-04T03:58:19.118Z,26.94
2022-12-04T04:00:45.529Z,26.19
2022-12-04T04:03:11.974Z,26.68
2022-12-04T04:05:38.394Z,27.11
2022-12-04T04:08:04.905Z,26.29
2022-12-04T04:10:31.391Z,26.67
2022-12-04T04:12:57.821Z,26.68
2022-12-04T04:15:24.223Z,27.61
2022-12-04T04:17:50.629Z,26.76
2022-12-04T04:20:17.068Z,25.98
2022-12-04T04:22:43.504Z,27.11
2022-12-04T04:25:09.928Z,28.26
2022-12-04T04:27:36.355Z,27.23
2022-12-04T04:30:02.784Z,26.48
2022-12-04T04:32:29.173Z,26.60
2022-12-04T04:34:55.598Z,29.10
2022-12-04T04:37:22.062Z,30.66
2022-12-04T04:39:48.479Z,26.68
2022-12-04T04:42:14.911Z,25.86
2022-12-04T04:44:41.330Z,26.76
2022-12-04T04:47:07.780Z,27.94
2022-12-04T04:49:34.213Z,27.15
2022-12-04T04:52:00.649Z,26.09
2022-12-04T04:54:27.083Z,26.58
2022-12-04T04:56:53.542Z,26.28
2022-12-04T04:59:19.950Z,26.30
2022-12-04T05:01:46.433Z,25.53
2022-12-04T05:04:12.995Z,26.58
2022-12-04T05:06:39.401Z,27.24
2022-12-04T05:09:05.830Z,27.11
2022-12-04T05:11:32.255Z,27.07
2022-12-04T05:13:58.698Z,27.50
2022-12-04T05:16:25.154Z,27.40
2022-12-04T05:18:51.619Z,27.55
2022-12-04T05:21:18.039Z,33.18
2022-12-04T05:23:44.454Z,26.89
2022-12-04T05:26:10.874Z,26.69
2022-12-04T05:28:37.307Z,26.37
2022-12-04T05:31:03.781Z,27.59
2022-12-04T05:33:30.282Z,27.17
2022-12-04T05:35:56.696Z,26.60
2022-12-04T05:38:23.113Z,27.02
2022-12-04T05:40:49.571Z,27.37
2022-12-04T05:43:16.031Z,26.63
2022-12-04T05:45:42.443Z,26.82
2022-12-04T05:48:08.877Z,26.58
2022-12-04T05:50:35.282Z,25.91
2022-12-04T05:53:01.679Z,26.36
2022-12-04T05:55:28.111Z,26.40
2022-12-04T05:57:54.543Z,26.52
2022-12-04T06:00:20.982Z,25.62
2022-12-04T06:02:47.454Z,26.65
2022-12-04T06:05:13.903Z,26.00
2022-12-04T06:07:40.360Z,26.16
2022-12-04T06:10:06.821Z,26.63
2022-12-04T06:12:33.294Z,26.70
2022-12-04T06:14:59.704Z,29.66
2022-12-04T06:17:26.168Z,26.69
2022-12-04T06:19:52.655Z,27.50
2022-12-04T06:22:19.236Z,26.66
2022-12-04T06:24:45.667Z,25.13
2022-12-04T06:27:27.347Z,23.85
2022-12-04T06:29:54.895Z,24.72
2022-12-04T06:32:22.284Z,23.73
2022-12-04T06:34:48.884Z,24.01
2022-12-04T06:37:15.309Z,25.09
2022-12-04T06:39:41.769Z,25.14
2022-12-04T06:42:08.171Z,23.60
2022-12-04T06:44:34.580Z,23.92
2022-12-04T06:47:01.385Z,23.73
2022-12-04T06:49:27.840Z,24.74
2022-12-04T06:51:54.293Z,25.61
2022-12-04T06:54:20.707Z,25.40
2022-12-04T06:56:47.166Z,25.54
2022-12-04T06:59:13.666Z,25.63
2022-12-04T07:01:40.180Z,25.97
2022-12-04T07:04:06.612Z,26.45
2022-12-04T07:06:33.043Z,25.11
2022-12-04T07:08:59.524Z,25.33
2022-12-04T07:11:25.997Z,30.62
2022-12-04T07:13:52.448Z,25.64
2022-12-04T07:16:18.925Z,25.11
2022-12-04T07:18:45.473Z,26.03
2022-12-04T07:21:11.889Z,30.77
2022-12-04T07:23:38.323Z,26.88
2022-12-04T07:26:04.757Z,25.12
2022-12-04T07:28:31.206Z,25.21
2022-12-04T07:30:57.673Z,25.93
2022-12-04T07:33:24.093Z,30.51
2022-12-04T07:35:50.503Z,43.21
2022-12-04T07:38:16.941Z,37.35
2022-12-04T07:40:43.381Z,27.13
2022-12-04T07:43:09.773Z,26.42
2022-12-04T07:45:36.221Z,28.12
2022-12-04T07:48:02.705Z,27.10
2022-12-04T07:50:29.168Z,26.99
2022-12-04T07:52:55.593Z,35.54
2022-12-04T07:55:23.459Z,29.69
2022-12-04T07:57:49.989Z,29.47
2022-12-04T08:00:16.429Z,26.71
2022-12-04T08:02:42.849Z,26.37
2022-12-04T08:05:09.337Z,26.18
2022-12-04T08:07:35.906Z,27.04
2022-12-04T08:10:02.431Z,29.43
2022-12-04T08:12:28.859Z,27.45
2022-12-04T08:14:55.302Z,28.65
2022-12-04T08:17:21.831Z,30.38
2022-12-04T08:19:48.315Z,28.62
2022-12-04T08:22:14.750Z,28.58
2022-12-04T08:24:41.193Z,27.15
2022-12-04T08:27:07.603Z,28.54
2022-12-04T08:29:34.045Z,28.15
2022-12-04T08:32:00.456Z,28.33
2022-12-04T08:34:26.944Z,27.40
2022-12-04T08:36:53.346Z,28.12
2022-12-04T08:39:19.770Z,27.51
2022-12-04T08:41:46.210Z,28.94
2022-12-04T08:44:12.644Z,29.01
2022-12-04T08:46:39.121Z,27.71
2022-12-04T08:49:05.606Z,28.37
2022-12-04T08:51:32.022Z,31.64
2022-12-04T08:53:58.429Z,29.87
2022-12-04T08:56:24.901Z,30.56
2022-12-04T08:58:51.343Z,27.49
2022-12-04T09:01:17.869Z,27.35
2022-12-04T09:03:44.336Z,26.69
2022-12-04T09:06:10.780Z,27.43
2022-12-04T09:08:37.218Z,29.47
2022-12-04T09:11:03.713Z,28.27
2022-12-04T09:13:30.160Z,27.61
2022-12-04T09:15:56.690Z,26.90
2022-12-04T09:18:23.171Z,26.45
2022-12-04T09:20:49.595Z,26.04
2022-12-04T09:23:16.008Z,26.96
2022-12-04T09:25:42.441Z,30.21
2022-12-04T09:28:08.858Z,26.38
2022-12-04T09:30:35.335Z,28.01
2022-12-04T09:33:01.749Z,29.65
2022-12-04T09:35:28.182Z,28.20
2022-12-04T09:37:54.621Z,27.48
2022-12-04T09:40:21.087Z,27.50
2022-12-04T09:42:47.532Z,29.02
2022-12-04T09:45:13.966Z,29.30
2022-12-04T09:47:40.361Z,29.33
2022-12-04T09:50:06.834Z,31.17
2022-12-04T09:52:33.264Z,28.36
2022-12-04T09:54:59.682Z,27.51
2022-12-04T09:57:26.218Z,29.17
2022-12-04T09:59:52.799Z,30.47
2022-12-04T10:02:19.729Z,31.34
2022-12-04T10:04:46.239Z,28.56
2022-12-04T10:07:12.665Z,28.08
2022-12-04T10:09:39.062Z,27.58
2022-12-04T10:12:05.463Z,26.10
2022-12-04T10:14:31.884Z,27.20
2022-12-04T10:16:58.318Z,26.83
2022-12-04T10:19:24.803Z,26.55
2022-12-04T10:21:51.218Z,26.81
2022-12-04T10:24:17.642Z,26.62
2022-12-04T10:26:44.059Z,27.27
2022-12-04T10:29:10.521Z,27.42
2022-12-04T10:31:37.026Z,26.33
2022-12-04T10:34:03.476Z,25.97
2022-12-04T10:36:29.896Z,27.69
2022-12-04T10:38:56.379Z,27.09
2022-12-04T10:41:22.813Z,27.60
2022-12-04T10:43:49.225Z,30.20
2022-12-04T10:46:15.668Z,27.78
2022-12-04T10:48:42.156Z,27.37
2022-12-04T10:51:08.567Z,27.68
2022-12-04T10:53:34.991Z,31.35
2022-12-04T10:56:01.429Z,35.36
2022-12-04T10:58:27.883Z,37.53
2022-12-04T11:00:54.340Z,33.49
2022-12-04T11:03:20.863Z,33.80
2022-12-04T11:05:47.320Z,30.51
2022-12-04T11:08:19.553Z,32.02
2022-12-04T11:10:46.328Z,30.62
2022-12-04T11:13:12.757Z,30.59
2022-12-04T11:15:39.180Z,31.43
2022-12-04T11:18:05.618Z,31.26
2022-12-04T11:20:32.074Z,29.50
2022-12-04T11:22:58.490Z,29.86
2022-12-04T11:25:24.928Z,29.97
2022-12-04T11:27:51.448Z,28.68
2022-12-04T11:30:17.973Z,31.60
2022-12-04T11:32:44.459Z,31.14
2022-12-04T11:35:10.901Z,28.04
2022-12-04T11:37:40.581Z,25.29
2022-12-04T11:40:11.455Z,25.43
2022-12-04T11:42:37.872Z,34.13
2022-12-04T11:45:04.331Z,26.47
2022-12-04T11:47:30.757Z,24.97
2022-12-04T11:49:57.405Z,24.86
2022-12-04T11:52:23.992Z,25.54
2022-12-04T11:54:50.417Z,27.43
2022-12-04T11:57:16.856Z,26.47
2022-12-04T11:59:43.279Z,27.11
2022-12-04T12:02:09.808Z,25.90
2022-12-04T12:04:36.296Z,26.15
2022-12-04T12:07:02.750Z,31.66
2022-12-04T12:09:29.185Z,26.76
2022-12-04T12:11:55.771Z,26.51
2022-12-04T12:14:22.170Z,26.12
2022-12-04T12:16:51.337Z,24.69
2022-12-04T12:19:18.089Z,25.21
2022-12-04T12:21:44.517Z,26.04
2022-12-04T12:24:10.931Z,27.55
2022-12-04T12:26:37.382Z,27.58
2022-12-04T12:29:03.820Z,26.45
2022-12-04T12:31:30.253Z,26.27
2022-12-04T12:33:56.732Z,26.45
2022-12-04T12:36:23.189Z,26.64
2022-12-04T12:38:49.615Z,30.88
2022-12-04T12:41:16.057Z,35.88
2022-12-04T12:43:42.575Z,26.25
2022-12-04T12:46:09.062Z,27.17
2022-12-04T12:48:35.525Z,27.40
2022-12-04T12:51:28.556Z,27.65
2022-12-04T12:53:48.359Z,27.71
2022-12-04T12:56:14.798Z,29.54
2022-12-04T12:58:41.231Z,28.08
2022-12-04T13:01:07.797Z,35.73
2022-12-04T13:03:34.243Z,33.63
2022-12-04T13:06:00.722Z,26.64
2022-12-04T13:08:27.223Z,30.91
2022-12-04T13:10:53.633Z,28.73
2022-12-04T13:13:20.066Z,22.50
2022-12-04T13:15:46.479Z,23.10
2022-12-04T13:18:12.912Z,24.47
2022-12-04T13:20:39.370Z,28.85
2022-12-04T13:23:05.818Z,30.35
2022-12-04T13:25:32.311Z,29.17
2022-12-04T13:27:58.763Z,28.20
2022-12-04T13:30:25.189Z,27.42
2022-12-04T13:32:51.636Z,25.68
2022-12-04T13:35:18.046Z,39.39
2022-12-04T13:37:44.498Z,27.03
2022-12-04T13:40:10.997Z,27.85
2022-12-04T13:42:37.437Z,24.45
2022-12-04T13:45:03.858Z,23.44
2022-12-04T13:47:30.258Z,24.30
2022-12-04T13:49:56.682Z,28.42
2022-12-04T13:52:23.101Z,27.72
2022-12-04T13:54:49.531Z,24.46
2022-12-04T13:57:15.990Z,23.83
2022-12-04T13:59:42.429Z,24.91
2022-12-04T14:02:08.865Z,24.94
2022-12-04T14:04:35.330Z,26.77
2022-12-04T14:07:01.795Z,27.20
2022-12-04T14:09:28.207Z,29.09
2022-12-04T14:11:54.638Z,27.66
2022-12-04T14:14:21.044Z,30.35
2022-12-04T14:16:47.579Z,25.31
2022-12-04T14:19:14.098Z,28.97
2022-12-04T14:21:40.525Z,25.83
2022-12-04T14:24:06.953Z,25.24
2022-12-04T14:27:03.197Z,26.17
2022-12-04T14:29:19.837Z,24.80
2022-12-04T14:31:46.279Z,24.55
2022-12-04T14:34:12.712Z,24.45
2022-12-04T14:36:39.166Z,22.96
2022-12-04T14:39:05.597Z,23.67
2022-12-04T14:41:32.002Z,22.90
2022-12-04T14:43:58.441Z,23.78
2022-12-04T14:46:24.930Z,23.01
2022-12-04T14:48:51.366Z,21.93
2022-12-04T14:51:17.996Z,23.21
2022-12-04T14:53:44.518Z,24.08
2022-12-04T14:56:10.952Z,24.34
2022-12-04T14:58:37.375Z,28.38
2022-12-04T15:01:03.811Z,27.23
2022-12-04T15:03:30.317Z,28.39
2022-12-04T15:05:56.791Z,26.02
2022-12-04T15:08:23.305Z,26.69
2022-12-04T15:10:50.978Z,27.78
2022-12-04T15:13:21.632Z,26.35
2022-12-04T15:15:48.323Z,25.23
2022-12-04T15:18:14.970Z,25.05
2022-12-04T15:20:41.451Z,27.58
2022-12-04T15:23:07.898Z,28.84
2022-12-04T15:25:34.350Z,28.91
2022-12-04T15:28:00.778Z,29.38
2022-12-04T15:30:27.187Z,28.51
2022-12-04T15:32:53.629Z,26.35
2022-12-04T15:35:20.041Z,28.67
2022-12-04T15:37:46.442Z,25.34
2022-12-04T15:40:12.893Z,25.02
2022-12-04T15:42:39.336Z,25.07
2022-12-04T15:45:05.772Z,24.06
2022-12-04T15:47:32.197Z,24.67
2022-12-04T15:49:58.742Z,26.75
2022-12-04T15:52:25.221Z,28.71
2022-12-04T15:54:51.661Z,58.74
2022-12-04T15:57:18.087Z,49.32
2022-12-04T15:59:44.518Z,56.19
2022-12-04T16:02:11.084Z,33.26
2022-12-04T16:04:42.490Z,36.67
2022-12-04T16:07:11.748Z,105.35
2022-12-04T16:09:38.177Z,92.04
2022-12-04T16:12:04.594Z,44.60
2022-12-04T16:14:31.085Z,31.16
2022-12-04T16:17:02.508Z,25.16
2022-12-04T16:19:32.195Z,23.64
2022-12-04T16:21:58.715Z,23.93
2022-12-04T16:24:29.066Z,26.63
2022-12-04T16:27:00.517Z,42.09
2022-12-04T16:32:14.671Z,23.09
2022-12-04T16:34:56.608Z,22.76
2022-12-04T16:37:23.313Z,23.05
2022-12-04T16:39:52.074Z,24.95
2022-12-04T16:42:19.179Z,25.99
2022-12-04T16:44:46.799Z,26.73
2022-12-04T16:47:13.442Z,24.37
2022-12-04T16:49:40.109Z,27.19
2022-12-04T16:52:06.762Z,25.96
2022-12-04T16:54:33.352Z,25.65
2022-12-04T16:57:00.957Z,24.00
2022-12-04T16:59:28.556Z,23.26
2022-12-04T17:01:56.229Z,23.14
2022-12-04T17:04:23.787Z,22.69
2022-12-04T17:06:51.326Z,22.25
2022-12-04T17:09:17.917Z,22.23
2022-12-04T17:11:44.503Z,25.38
2022-12-04T17:14:11.415Z,27.09
2022-12-04T17:16:38.008Z,27.20
2022-12-04T17:19:04.536Z,24.82
2022-12-04T17:21:31.851Z,23.62
2022-12-04T17:23:59.470Z,23.14
2022-12-04T17:26:28.064Z,21.81
2022-12-04T17:28:54.662Z,23.43
2022-12-04T17:31:21.213Z,24.31
2022-12-04T17:33:47.849Z,24.14
2022-12-04T17:36:15.438Z,24.88
2022-12-04T17:38:42.029Z,23.97
2022-12-04T17:41:09.626Z,23.59
2022-12-04T17:43:36.239Z,24.22
2022-12-04T17:46:05.348Z,24.71
2022-12-04T17:48:31.818Z,24.12
2022-12-04T17:50:58.371Z,24.83
2022-12-04T17:53:24.945Z,23.32
2022-12-04T17:55:53.197Z,23.57
2022-12-04T17:58:20.784Z,24.93
2022-12-04T18:00:48.444Z,24.91
2022-12-04T18:03:17.009Z,24.52
2022-12-04T18:05:44.569Z,24.97
2022-12-04T18:08:12.232Z,24.54
2022-12-04T18:10:39.761Z,24.22
2022-12-04T18:13:06.674Z,22.85
2022-12-04T18:15:33.145Z,24.47
2022-12-04T18:17:59.614Z,22.90
2022-12-04T18:20:26.131Z,22.66
2022-12-04T18:22:52.576Z,24.34
2022-12-04T18:25:19.090Z,24.39
2022-12-04T18:27:45.551Z,31.96
2022-12-04T18:30:12.050Z,28.20
2022-12-04T18:32:38.550Z,30.81
2022-12-04T18:35:05.683Z,27.41
2022-12-04T18:37:33.254Z,30.63
2022-12-04T18:40:05.910Z,27.52
2022-12-04T18:42:34.465Z,23.77
2022-12-04T18:45:03.080Z,24.11
2022-12-04T18:47:30.701Z,27.63
2022-12-04T18:49:58.592Z,24.01
2022-12-04T18:52:25.850Z,22.72
2022-12-04T18:54:52.333Z,23.36
2022-12-04T18:57:18.830Z,24.45
2022-12-04T18:59:45.616Z,22.60
2022-12-04T19:02:13.246Z,23.36
2022-12-04T19:04:40.839Z,24.26
2022-12-04T19:07:07.442Z,23.42
2022-12-04T19:10:09.259Z,24.04
2022-12-04T19:12:23.773Z,21.82
2022-12-04T19:14:52.488Z,21.93
2022-12-04T19:17:20.905Z,20.82
2022-12-04T19:19:48.517Z,21.97
2022-12-04T19:22:15.351Z,20.56
2022-12-04T19:24:41.833Z,21.46
2022-12-04T19:27:08.332Z,21.34
2022-12-04T19:29:34.889Z,20.67
2022-12-04T19:32:01.409Z,21.09
2022-12-04T19:34:28.068Z,20.77
2022-12-04T19:36:55.667Z,21.16
2022-12-04T19:39:22.276Z,21.77
2022-12-04T19:41:49.840Z,21.68
2022-12-04T19:44:47.495Z,23.08
2022-12-04T19:47:04.094Z,23.04
2022-12-04T19:49:31.722Z,21.81
2022-12-04T19:51:58.329Z,20.23
2022-12-04T19:54:26.005Z,20.58
2022-12-04T19:56:53.543Z,20.94
2022-12-04T19:59:23.131Z,20.63
2022-12-04T20:01:49.852Z,21.18
2022-12-04T20:04:17.350Z,20.73
2022-12-04T20:06:43.824Z,21.70
2022-12-04T20:09:10.302Z,21.31
2022-12-04T20:11:37.108Z,22.21
2022-12-04T20:14:04.705Z,21.22
2022-12-04T20:16:31.346Z,21.02
2022-12-04T20:18:58.907Z,21.98
2022-12-04T20:21:26.477Z,24.81
2022-12-04T20:23:54.073Z,23.24
2022-12-04T20:26:20.543Z,21.70
2022-12-04T20:28:47.022Z,22.50
2022-12-04T20:31:13.500Z,21.79
2022-12-04T20:33:40.435Z,21.33
2022-12-04T20:36:08.027Z,21.29
2022-12-04T20:38:34.621Z,21.87
2022-12-04T20:41:02.219Z,21.74
2022-12-04T20:43:29.797Z,22.64
2022-12-04T20:45:56.716Z,21.57
2022-12-04T20:48:23.268Z,22.32
2022-12-04T20:50:49.784Z,22.46
2022-12-04T20:53:18.183Z,22.91
2022-12-04T20:55:45.774Z,21.98
2022-12-04T20:58:14.486Z,22.03
2022-12-04T21:00:41.960Z,24.28
2022-12-04T21:03:09.613Z,23.15
2022-12-04T21:05:38.166Z,23.39
2022-12-04T21:08:04.808Z,23.50
2022-12-04T21:10:33.353Z,23.90
2022-12-04T21:13:00.963Z,22.98
2022-12-04T21:15:28.579Z,23.78
2022-12-04T21:17:56.174Z,24.34
2022-12-04T21:20:23.752Z,25.23
2022-12-04T21:22:50.225Z,23.55
2022-12-04T21:25:16.946Z,24.55
2022-12-04T21:27:43.537Z,24.25
2022-12-04T21:30:11.184Z,24.18
2022-12-04T21:32:38.767Z,24.90
2022-12-04T21:35:05.350Z,25.81
2022-12-04T21:37:32.941Z,24.56
2022-12-04T21:39:59.872Z,23.39
2022-12-04T21:42:27.125Z,25.02
2022-12-04T21:44:53.616Z,24.90
2022-12-04T21:47:20.344Z,25.11
2022-12-04T21:49:47.911Z,24.58
2022-12-04T21:52:15.517Z,24.24
2022-12-04T21:54:42.131Z,24.50
2022-12-04T21:57:09.036Z,24.18
2022-12-04T21:59:35.533Z,23.30
2022-12-04T22:02:02.115Z,23.45
2022-12-04T22:04:28.658Z,21.99
2022-12-04T22:06:56.070Z,21.96
2022-12-04T22:09:22.652Z,19.78
2022-12-04T22:11:49.256Z,19.56
2022-12-04T22:14:16.867Z,19.59
2022-12-04T22:16:45.531Z,19.13
2022-12-04T22:19:13.036Z,20.79
2022-12-04T22:21:40.639Z,20.46
2022-12-04T22:24:07.217Z,20.96
2022-12-04T22:26:33.742Z,19.93
2022-12-04T22:29:00.200Z,20.04
2022-12-04T22:31:27.031Z,19.84
2022-12-04T22:33:54.581Z,18.55
2022-12-04T22:36:23.194Z,18.49
2022-12-04T22:39:09.721Z,16.99
2022-12-04T22:41:37.502Z,17.42
2022-12-04T22:44:05.063Z,17.90
2022-12-04T22:46:31.748Z,17.76
2022-12-04T22:48:59.272Z,17.34
2022-12-04T22:51:25.881Z,17.06
2022-12-04T22:53:53.463Z,16.16
2022-12-04T22:56:20.052Z,14.04
2022-12-04T22:58:47.651Z,13.64
2022-12-04T23:01:15.245Z,13.58
2022-12-04T23:03:42.843Z,12.61
2022-12-04T23:06:09.324Z,12.02
2022-12-04T23:08:35.819Z,12.45
2022-12-04T23:11:02.294Z,11.58
2022-12-04T23:13:29.189Z,11.77
2022-12-04T23:15:56.811Z,17.17
2022-12-04T23:18:24.371Z,18.23
2022-12-04T23:20:51.948Z,18.98
2022-12-04T23:23:18.561Z,19.22
2022-12-04T23:25:45.152Z,18.18
2022-12-04T23:28:13.750Z,17.00
2022-12-04T23:30:41.345Z,16.61
2022-12-04T23:33:07.928Z,20.02
2022-12-04T23:35:34.529Z,15.48
2022-12-04T23:38:01.153Z,14.70
2022-12-04T23:40:28.752Z,14.20
2022-12-04T23:42:55.451Z,14.09
2022-12-04T23:45:22.065Z,14.09
2022-12-04T23:47:49.762Z,15.22
2022-12-04T23:50:16.763Z,15.46
2022-12-04T23:52:43.239Z,15.74
2022-12-04T23:55:09.679Z,14.76
2022-12-04T23:57:37.130Z,15.99
